Iona Mcallister — WDD4840 — position and weather

sailwx.info

Track history (hours):
 
Tides and Currents Weather Stations Pressure Air Temp Water Temp Dewpoint Dewpoint Depression Visibility Wind Speed Wind Dir Waves Ship Positions

Iona Mcallister

Owner: McAllister Towing & Transportation Co. Inc., Staten Island, NY. More information available from US FCC via Universal Licensing System and Coast Guard Vessel Documentation Center.

Last reported at 2015-Sep-02 12:32 UTC. Time now 2015-Sep-02 12:53 UTC.
Position N 41°37' W 071°24'.

Length 36 m.

Type: Towing. MMSI: 367149890.

Date/timePositionNaut miles runAvg speedWind from/ knotsBaromVisibWave heightAir tempDewpointWater temp
2015-Sep-02 12:32N 41°37' W 071°24'0 0.0
2015-Sep-02 11:27N 41°37' W 071°24'0 0.0
2015-Sep-02 10:29N 41°37' W 071°24'1 0.8
2015-Sep-02 09:34N 41°36' W 071°24'2 1.7
2015-Sep-02 08:33N 41°38' W 071°22'8 8.2
2015-Sep-02 07:33N 41°46' W 071°23'3 3.2
2015-Sep-02 06:31N 41°49' W 071°24'0 0.0
2015-Sep-02 05:31N 41°49' W 071°24'0 0.0
2015-Sep-02 04:31N 41°49' W 071°24'0 0.0
2015-Sep-02 03:31N 41°49' W 071°24'0 0.0
2015-Sep-02 02:33N 41°49' W 071°24'0 0.0
2015-Sep-02 01:25N 41°49' W 071°24'0 0.0
2015-Sep-02 00:28N 41°49' W 071°24'0 0.0
2015-Sep-01 18:30N 41°49' W 071°24'0 0.0
2015-Sep-01 12:18N 41°49' W 071°24'0 0.0
2015-Sep-01 11:30N 41°49' W 071°24'0 0.0
2015-Sep-01 10:30N 41°49' W 071°24'0 0.0
2015-Sep-01 09:24N 41°49' W 071°24'0 0.0
2015-Sep-01 08:30N 41°49' W 071°24'0 0.0
2015-Sep-01 07:24N 41°49' W 071°24'0 0.0
2015-Sep-01 06:30N 41°49' W 071°24'0 0.0
2015-Sep-01 05:24N 41°49' W 071°24'0 0.0
2015-Sep-01 04:18N 41°49' W 071°24'0 0.0
2015-Sep-01 03:30N 41°49' W 071°24'0 0.0
2015-Sep-01 02:30N 41°49' W 071°24'0 0.0
2015-Sep-01 01:30N 41°49' W 071°24'0 0.0
2015-Aug-31 23:30N 41°49' W 071°24'0 0.0
2015-Aug-31 22:24N 41°49' W 071°24'0 0.0
2015-Aug-31 21:18N 41°49' W 071°24'0 0.0
2015-Aug-31 20:33N 41°49' W 071°24'0 0.0
2015-Aug-31 18:33N 41°49' W 071°24'0 0.0
2015-Aug-31 17:21N 41°49' W 071°24'0 0.0
2015-Aug-31 16:27N 41°49' W 071°24'0 0.0
2015-Aug-31 13:33N 41°49' W 071°24'0 0.0
2015-Aug-31 12:30N 41°49' W 071°24'0 0.0
2015-Aug-31 11:30N 41°49' W 071°24'0 0.0
2015-Aug-31 10:30N 41°49' W 071°24'0 0.0
2015-Aug-31 09:30N 41°49' W 071°24'0 0.0
2015-Aug-31 07:12N 41°49' W 071°24'0 0.0
2015-Aug-31 06:30N 41°49' W 071°24'0 0.0
2015-Aug-31 05:29N 41°49' W 071°24'0 0.0
2015-Aug-31 04:29N 41°49' W 071°24'0 0.0
2015-Aug-31 03:29N 41°49' W 071°24'0 0.0
2015-Aug-31 02:29N 41°49' W 071°24'0 0.0
2015-Aug-31 01:11N 41°49' W 071°24'0 0.0
2015-Aug-31 00:29N 41°49' W 071°24'0 0.0
2015-Aug-30 23:29N 41°49' W 071°24'0 0.0
2015-Aug-30 22:29N 41°49' W 071°24'0 0.0
2015-Aug-30 21:11N 41°49' W 071°24'0 0.0
2015-Aug-30 20:29N 41°49' W 071°24'0 0.0
2015-Aug-30 18:17N 41°49' W 071°24'0 0.0
2015-Aug-30 16:05N 41°49' W 071°24'0 0.0
2015-Aug-30 15:29N 41°49' W 071°24'0 0.0
2015-Aug-30 14:29N 41°49' W 071°24'0 0.0
2015-Aug-30 11:29N 41°49' W 071°24'0 0.0
2015-Aug-30 10:17N 41°49' W 071°24'0 0.0
2015-Aug-30 09:29N 41°49' W 071°24'0 0.0
2015-Aug-30 07:28N 41°49' W 071°24'0 0.0
2015-Aug-30 06:22N 41°49' W 071°24'0 0.0
2015-Aug-30 05:22N 41°49' W 071°24'0 0.0
2015-Aug-30 00:22N 41°49' W 071°24'0 0.0
2015-Aug-29 23:28N 41°49' W 071°24'0 0.0
2015-Aug-29 22:22N 41°49' W 071°24'0 0.0
2015-Aug-29 17:06N 41°49' W 071°24'4 7.3
2015-Aug-29 16:33N 41°45' W 071°22'6 5.9
2015-Aug-29 15:33N 41°39' W 071°22'3 0.5
2015-Aug-29 10:19N 41°37' W 071°24'0 0.5
2015-Aug-29 09:30N 41°36' W 071°24'1 0.1
2015-Aug-28 22:33N 41°35' W 071°24'2 1.7
2015-Aug-28 21:32N 41°37' W 071°24'0 0.0
2015-Aug-28 18:32N 41°37' W 071°24'0 0.0
2015-Aug-28 17:32N 41°37' W 071°24'0 0.0
2015-Aug-28 16:11N 41°37' W 071°24'0 0.0
2015-Aug-28 15:26N 41°37' W 071°24'1 1.2
2015-Aug-28 14:33N 41°36' W 071°24'1 0.7
2015-Aug-28 13:28N 41°35' W 071°24'1 0.8
2015-Aug-28 12:33N 41°35' W 071°23'9 8.8
2015-Aug-28 11:33N 41°43' W 071°21'6 5.8
2015-Aug-28 10:32N 41°49' W 071°24'0 0.0
2015-Aug-28 09:32N 41°49' W 071°24'0 0.0
2015-Aug-28 08:08N 41°49' W 071°24'0 0.0
2015-Aug-28 07:20N 41°49' W 071°24'0 0.0
2015-Aug-28 06:08N 41°49' W 071°24'1 1.3
2015-Aug-28 05:33N 41°48' W 071°24'1 0.4
2015-Aug-28 03:20N 41°48' W 071°23'1 0.9
2015-Aug-28 02:32N 41°48' W 071°23'1 0.2
2015-Aug-27 22:22N 41°49' W 071°24'5 1.7
2015-Aug-27 19:33N 41°44' W 071°22'8 5.7
2015-Aug-27 18:07N 41°41' W 071°12'1 0.4
2015-Aug-27 15:34N 41°42' W 071°11'0 0.1
2015-Aug-27 14:09N 41°42' W 071°11'0 0.0
2015-Aug-27 13:33N 41°42' W 071°11'10 7.6
2015-Aug-27 12:16N 41°34' W 071°20'4 4.7
2015-Aug-27 11:28N 41°35' W 071°24'1 1.3
2015-Aug-27 10:33N 41°35' W 071°23'2 1.8
2015-Aug-27 09:30N 41°33' W 071°21'4 4.0
2015-Aug-27 08:34N 41°30' W 071°21'4 3.7
2015-Aug-27 07:31N 41°26' W 071°22'4 4.1
2015-Aug-27 06:33N 41°22' W 071°22'4 4.5
2015-Aug-27 05:33N 41°18' W 071°23'4 4.1
2015-Aug-27 04:33N 41°14' W 071°24'4 3.9
2015-Aug-27 03:33N 41°10' W 071°26'4 3.6
2015-Aug-27 02:33N 41°07' W 071°29'1 1.4
2015-Aug-27 01:32N 41°07' W 071°31'0 0.4
2015-Aug-27 00:32N 41°07' W 071°31'0 0.3
2015-Aug-26 23:31N 41°07' W 071°31'0 0.2
2015-Aug-26 22:34N 41°07' W 071°31'0 0.3
2015-Aug-26 21:33N 41°07' W 071°31'0 0.1
2015-Aug-26 20:33N 41°07' W 071°31'0 0.2
2015-Aug-26 19:33N 41°07' W 071°31'0 0.0
2015-Aug-26 18:33N 41°07' W 071°31'0 0.0
2015-Aug-26 17:33N 41°07' W 071°31'0 0.0
2015-Aug-26 16:33N 41°07' W 071°31'0 0.0
2015-Aug-26 15:33N 41°07' W 071°31'0 0.0
2015-Aug-26 14:33N 41°07' W 071°31'0 0.0
2015-Aug-26 13:33N 41°07' W 071°31'0 0.0
2015-Aug-26 12:33N 41°07' W 071°31'0 0.0
2015-Aug-26 11:33N 41°07' W 071°31'0 0.0
2015-Aug-26 10:33N 41°07' W 071°31'0 0.0
2015-Aug-26 09:33N 41°07' W 071°31'0 0.0
2015-Aug-26 08:33N 41°07' W 071°31'0 0.0
2015-Aug-26 07:33N 41°07' W 071°31'0 0.0
2015-Aug-26 06:33N 41°07' W 071°31'0 0.0
2015-Aug-26 05:32N 41°07' W 071°31'0 0.0
2015-Aug-26 04:32N 41°07' W 071°31'0 0.0
2015-Aug-26 03:32N 41°07' W 071°31'0 0.0
2015-Aug-26 02:32N 41°07' W 071°31'0 0.3
2015-Aug-26 01:31N 41°07' W 071°31'0 0.4
2015-Aug-26 00:33N 41°07' W 071°31'0 0.0
2015-Aug-25 23:33N 41°07' W 071°31'0 0.0
2015-Aug-25 22:33N 41°07' W 071°31'0 0.0
2015-Aug-25 21:32N 41°07' W 071°31'0 0.0
2015-Aug-25 20:32N 41°07' W 071°31'0 0.0
2015-Aug-25 19:32N 41°07' W 071°31'0 0.0
2015-Aug-25 18:32N 41°07' W 071°31'0 0.0
2015-Aug-25 17:32N 41°07' W 071°31'0 0.0
2015-Aug-25 16:32N 41°07' W 071°31'0 0.0
2015-Aug-25 15:32N 41°07' W 071°31'0 0.0
2015-Aug-25 14:32N 41°07' W 071°31'0 0.0
2015-Aug-25 13:32N 41°07' W 071°31'0 0.0
2015-Aug-25 12:32N 41°07' W 071°31'0 0.0
2015-Aug-25 11:32N 41°07' W 071°31'0 0.0
2015-Aug-25 10:32N 41°07' W 071°31'0 0.0
2015-Aug-25 09:32N 41°07' W 071°31'0 0.0
2015-Aug-25 08:31N 41°07' W 071°31'0 0.0
2015-Aug-25 07:31N 41°07' W 071°31'0 0.0
2015-Aug-25 06:31N 41°07' W 071°31'0 0.0
2015-Aug-25 05:31N 41°07' W 071°31'0 0.0
2015-Aug-25 04:31N 41°07' W 071°31'0 0.0
2015-Aug-25 03:31N 41°07' W 071°31'0 0.0
2015-Aug-25 02:28N 41°07' W 071°31'0 0.0
2015-Aug-25 01:33N 41°07' W 071°31'0 0.0
2015-Aug-25 00:33N 41°07' W 071°31'0 0.0
2015-Aug-24 23:33N 41°07' W 071°31'0 0.0
2015-Aug-24 22:33N 41°07' W 071°31'0 0.0
2015-Aug-24 21:33N 41°07' W 071°31'0 0.0
2015-Aug-24 20:33N 41°07' W 071°31'0 0.3
2015-Aug-24 19:33N 41°07' W 071°31'10 9.5
2015-Aug-24 18:33N 41°14' W 071°22'1010.0
2015-Aug-24 17:33N 41°20' W 071°12'8 0.7
2015-Aug-24 05:33N 41°27' W 071°06'10 9.9
2015-Aug-24 04:33N 41°25' W 071°19'8 8.1
2015-Aug-24 03:33N 41°33' W 071°19'10 9.7
2015-Aug-24 02:33N 41°43' W 071°21'6 6.2
2015-Aug-24 01:33N 41°49' W 071°24'0 0.1
2015-Aug-24 00:33N 41°49' W 071°24'0 0.0
2015-Aug-23 23:33N 41°49' W 071°24'0 0.0
2015-Aug-23 22:33N 41°49' W 071°24'0 0.0
2015-Aug-23 21:06N 41°49' W 071°24'0 0.1
2015-Aug-23 19:30N 41°49' W 071°24'1 1.2
2015-Aug-23 18:31N 41°48' W 071°23'1 1.5
2015-Aug-23 17:33N 41°46' W 071°22'3 2.8
2015-Aug-23 16:33N 41°49' W 071°24'0 0.0
2015-Aug-23 15:32N 41°49' W 071°24'0 0.0
2015-Aug-23 14:33N 41°49' W 071°24'0 0.0
2015-Aug-23 13:33N 41°49' W 071°24'0 0.0
2015-Aug-23 12:33N 41°49' W 071°24'  
Track history (hours):
 
Tides and Currents Weather Stations Pressure Air Temp Water Temp Dewpoint Dewpoint Depression Visibility Wind Speed Wind Dir Waves Ship Positions

Iona Mcallister

Owner: McAllister Towing & Transportation Co. Inc., Staten Island, NY. More information available from US FCC via Universal Licensing System and Coast Guard Vessel Documentation Center.

Last reported at 2015-Sep-02 12:32 UTC. Time now 2015-Sep-02 12:53 UTC.
Position N 41°37' W 071°24'.

Length 36 m.

Type: Towing. MMSI: 367149890.

Date/timePositionNaut miles runAvg speedWind from/ knotsBaromVisibWave heightAir tempDewpointWater temp
2015-Sep-02 12:32N 41°37' W 071°24'0 0.0
2015-Sep-02 11:27N 41°37' W 071°24'0 0.0
2015-Sep-02 10:29N 41°37' W 071°24'1 0.8
2015-Sep-02 09:34N 41°36' W 071°24'2 1.7
2015-Sep-02 08:33N 41°38' W 071°22'8 8.2
2015-Sep-02 07:33N 41°46' W 071°23'3 3.2
2015-Sep-02 06:31N 41°49' W 071°24'0 0.0
2015-Sep-02 05:31N 41°49' W 071°24'0 0.0
2015-Sep-02 04:31N 41°49' W 071°24'0 0.0
2015-Sep-02 03:31N 41°49' W 071°24'0 0.0
2015-Sep-02 02:33N 41°49' W 071°24'0 0.0
2015-Sep-02 01:25N 41°49' W 071°24'0 0.0
2015-Sep-02 00:28N 41°49' W 071°24'0 0.0
2015-Sep-01 18:30N 41°49' W 071°24'0 0.0
2015-Sep-01 12:18N 41°49' W 071°24'0 0.0
2015-Sep-01 11:30N 41°49' W 071°24'0 0.0
2015-Sep-01 10:30N 41°49' W 071°24'0 0.0
2015-Sep-01 09:24N 41°49' W 071°24'0 0.0
2015-Sep-01 08:30N 41°49' W 071°24'0 0.0
2015-Sep-01 07:24N 41°49' W 071°24'0 0.0
2015-Sep-01 06:30N 41°49' W 071°24'0 0.0
2015-Sep-01 05:24N 41°49' W 071°24'0 0.0
2015-Sep-01 04:18N 41°49' W 071°24'0 0.0
2015-Sep-01 03:30N 41°49' W 071°24'0 0.0
2015-Sep-01 02:30N 41°49' W 071°24'0 0.0
2015-Sep-01 01:30N 41°49' W 071°24'0 0.0
2015-Aug-31 23:30N 41°49' W 071°24'0 0.0
2015-Aug-31 22:24N 41°49' W 071°24'0 0.0
2015-Aug-31 21:18N 41°49' W 071°24'0 0.0
2015-Aug-31 20:33N 41°49' W 071°24'0 0.0
2015-Aug-31 18:33N 41°49' W 071°24'0 0.0
2015-Aug-31 17:21N 41°49' W 071°24'0 0.0
2015-Aug-31 16:27N 41°49' W 071°24'0 0.0
2015-Aug-31 13:33N 41°49' W 071°24'0 0.0
2015-Aug-31 12:30N 41°49' W 071°24'0 0.0
2015-Aug-31 11:30N 41°49' W 071°24'0 0.0
2015-Aug-31 10:30N 41°49' W 071°24'0 0.0
2015-Aug-31 09:30N 41°49' W 071°24'0 0.0
2015-Aug-31 07:12N 41°49' W 071°24'0 0.0
2015-Aug-31 06:30N 41°49' W 071°24'0 0.0
2015-Aug-31 05:29N 41°49' W 071°24'0 0.0
2015-Aug-31 04:29N 41°49' W 071°24'0 0.0
2015-Aug-31 03:29N 41°49' W 071°24'0 0.0
2015-Aug-31 02:29N 41°49' W 071°24'0 0.0
2015-Aug-31 01:11N 41°49' W 071°24'0 0.0
2015-Aug-31 00:29N 41°49' W 071°24'0 0.0
2015-Aug-30 23:29N 41°49' W 071°24'0 0.0
2015-Aug-30 22:29N 41°49' W 071°24'0 0.0
2015-Aug-30 21:11N 41°49' W 071°24'0 0.0
2015-Aug-30 20:29N 41°49' W 071°24'0 0.0
2015-Aug-30 18:17N 41°49' W 071°24'0 0.0
2015-Aug-30 16:05N 41°49' W 071°24'0 0.0
2015-Aug-30 15:29N 41°49' W 071°24'0 0.0
2015-Aug-30 14:29N 41°49' W 071°24'0 0.0
2015-Aug-30 11:29N 41°49' W 071°24'0 0.0
2015-Aug-30 10:17N 41°49' W 071°24'0 0.0
2015-Aug-30 09:29N 41°49' W 071°24'0 0.0
2015-Aug-30 07:28N 41°49' W 071°24'0 0.0
2015-Aug-30 06:22N 41°49' W 071°24'0 0.0
2015-Aug-30 05:22N 41°49' W 071°24'0 0.0
2015-Aug-30 00:22N 41°49' W 071°24'0 0.0
2015-Aug-29 23:28N 41°49' W 071°24'0 0.0
2015-Aug-29 22:22N 41°49' W 071°24'0 0.0
2015-Aug-29 17:06N 41°49' W 071°24'4 7.3
2015-Aug-29 16:33N 41°45' W 071°22'6 5.9
2015-Aug-29 15:33N 41°39' W 071°22'3 0.5
2015-Aug-29 10:19N 41°37' W 071°24'0 0.5
2015-Aug-29 09:30N 41°36' W 071°24'1 0.1
2015-Aug-28 22:33N 41°35' W 071°24'2 1.7
2015-Aug-28 21:32N 41°37' W 071°24'0 0.0
2015-Aug-28 18:32N 41°37' W 071°24'0 0.0
2015-Aug-28 17:32N 41°37' W 071°24'0 0.0
2015-Aug-28 16:11N 41°37' W 071°24'0 0.0
2015-Aug-28 15:26N 41°37' W 071°24'1 1.2
2015-Aug-28 14:33N 41°36' W 071°24'1 0.7
2015-Aug-28 13:28N 41°35' W 071°24'1 0.8
2015-Aug-28 12:33N 41°35' W 071°23'9 8.8
2015-Aug-28 11:33N 41°43' W 071°21'6 5.8
2015-Aug-28 10:32N 41°49' W 071°24'0 0.0
2015-Aug-28 09:32N 41°49' W 071°24'0 0.0
2015-Aug-28 08:08N 41°49' W 071°24'0 0.0
2015-Aug-28 07:20N 41°49' W 071°24'0 0.0
2015-Aug-28 06:08N 41°49' W 071°24'1 1.3
2015-Aug-28 05:33N 41°48' W 071°24'1 0.4
2015-Aug-28 03:20N 41°48' W 071°23'1 0.9
2015-Aug-28 02:32N 41°48' W 071°23'1 0.2
2015-Aug-27 22:22N 41°49' W 071°24'5 1.7
2015-Aug-27 19:33N 41°44' W 071°22'8 5.7
2015-Aug-27 18:07N 41°41' W 071°12'1 0.4
2015-Aug-27 15:34N 41°42' W 071°11'0 0.1
2015-Aug-27 14:09N 41°42' W 071°11'0 0.0
2015-Aug-27 13:33N 41°42' W 071°11'10 7.6
2015-Aug-27 12:16N 41°34' W 071°20'4 4.7
2015-Aug-27 11:28N 41°35' W 071°24'1 1.3
2015-Aug-27 10:33N 41°35' W 071°23'2 1.8
2015-Aug-27 09:30N 41°33' W 071°21'4 4.0
2015-Aug-27 08:34N 41°30' W 071°21'4 3.7
2015-Aug-27 07:31N 41°26' W 071°22'4 4.1
2015-Aug-27 06:33N 41°22' W 071°22'4 4.5
2015-Aug-27 05:33N 41°18' W 071°23'4 4.1
2015-Aug-27 04:33N 41°14' W 071°24'4 3.9
2015-Aug-27 03:33N 41°10' W 071°26'4 3.6
2015-Aug-27 02:33N 41°07' W 071°29'1 1.4
2015-Aug-27 01:32N 41°07' W 071°31'0 0.4
2015-Aug-27 00:32N 41°07' W 071°31'0 0.3
2015-Aug-26 23:31N 41°07' W 071°31'0 0.2
2015-Aug-26 22:34N 41°07' W 071°31'0 0.3
2015-Aug-26 21:33N 41°07' W 071°31'0 0.1
2015-Aug-26 20:33N 41°07' W 071°31'0 0.2
2015-Aug-26 19:33N 41°07' W 071°31'0 0.0
2015-Aug-26 18:33N 41°07' W 071°31'0 0.0
2015-Aug-26 17:33N 41°07' W 071°31'0 0.0
2015-Aug-26 16:33N 41°07' W 071°31'0 0.0
2015-Aug-26 15:33N 41°07' W 071°31'0 0.0
2015-Aug-26 14:33N 41°07' W 071°31'0 0.0
2015-Aug-26 13:33N 41°07' W 071°31'0 0.0
2015-Aug-26 12:33N 41°07' W 071°31'0 0.0
2015-Aug-26 11:33N 41°07' W 071°31'0 0.0
2015-Aug-26 10:33N 41°07' W 071°31'0 0.0
2015-Aug-26 09:33N 41°07' W 071°31'0 0.0
2015-Aug-26 08:33N 41°07' W 071°31'0 0.0
2015-Aug-26 07:33N 41°07' W 071°31'0 0.0
2015-Aug-26 06:33N 41°07' W 071°31'0 0.0
2015-Aug-26 05:32N 41°07' W 071°31'0 0.0
2015-Aug-26 04:32N 41°07' W 071°31'0 0.0
2015-Aug-26 03:32N 41°07' W 071°31'0 0.0
2015-Aug-26 02:32N 41°07' W 071°31'0 0.3
2015-Aug-26 01:31N 41°07' W 071°31'0 0.4
2015-Aug-26 00:33N 41°07' W 071°31'0 0.0
2015-Aug-25 23:33N 41°07' W 071°31'0 0.0
2015-Aug-25 22:33N 41°07' W 071°31'0 0.0
2015-Aug-25 21:32N 41°07' W 071°31'0 0.0
2015-Aug-25 20:32N 41°07' W 071°31'0 0.0
2015-Aug-25 19:32N 41°07' W 071°31'0 0.0
2015-Aug-25 18:32N 41°07' W 071°31'0 0.0
2015-Aug-25 17:32N 41°07' W 071°31'0 0.0
2015-Aug-25 16:32N 41°07' W 071°31'0 0.0
2015-Aug-25 15:32N 41°07' W 071°31'0 0.0
2015-Aug-25 14:32N 41°07' W 071°31'0 0.0
2015-Aug-25 13:32N 41°07' W 071°31'0 0.0
2015-Aug-25 12:32N 41°07' W 071°31'0 0.0
2015-Aug-25 11:32N 41°07' W 071°31'0 0.0
2015-Aug-25 10:32N 41°07' W 071°31'0 0.0
2015-Aug-25 09:32N 41°07' W 071°31'0 0.0
2015-Aug-25 08:31N 41°07' W 071°31'0 0.0
2015-Aug-25 07:31N 41°07' W 071°31'0 0.0
2015-Aug-25 06:31N 41°07' W 071°31'0 0.0
2015-Aug-25 05:31N 41°07' W 071°31'0 0.0
2015-Aug-25 04:31N 41°07' W 071°31'0 0.0
2015-Aug-25 03:31N 41°07' W 071°31'0 0.0
2015-Aug-25 02:28N 41°07' W 071°31'0 0.0
2015-Aug-25 01:33N 41°07' W 071°31'0 0.0
2015-Aug-25 00:33N 41°07' W 071°31'0 0.0
2015-Aug-24 23:33N 41°07' W 071°31'0 0.0
2015-Aug-24 22:33N 41°07' W 071°31'0 0.0
2015-Aug-24 21:33N 41°07' W 071°31'0 0.0
2015-Aug-24 20:33N 41°07' W 071°31'0 0.3
2015-Aug-24 19:33N 41°07' W 071°31'10 9.5
2015-Aug-24 18:33N 41°14' W 071°22'1010.0
2015-Aug-24 17:33N 41°20' W 071°12'8 0.7
2015-Aug-24 05:33N 41°27' W 071°06'10 9.9
2015-Aug-24 04:33N 41°25' W 071°19'8 8.1
2015-Aug-24 03:33N 41°33' W 071°19'10 9.7
2015-Aug-24 02:33N 41°43' W 071°21'6 6.2
2015-Aug-24 01:33N 41°49' W 071°24'0 0.1
2015-Aug-24 00:33N 41°49' W 071°24'0 0.0
2015-Aug-23 23:33N 41°49' W 071°24'0 0.0
2015-Aug-23 22:33N 41°49' W 071°24'0 0.0
2015-Aug-23 21:06N 41°49' W 071°24'0 0.1
2015-Aug-23 19:30N 41°49' W 071°24'1 1.2
2015-Aug-23 18:31N 41°48' W 071°23'1 1.5
2015-Aug-23 17:33N 41°46' W 071°22'3 2.8
2015-Aug-23 16:33N 41°49' W 071°24'0 0.0
2015-Aug-23 15:32N 41°49' W 071°24'0 0.0
2015-Aug-23 14:33N 41°49' W 071°24'0 0.0
2015-Aug-23 13:33N 41°49' W 071°24'0 0.0
2015-Aug-23 12:33N 41°49' W 071°24'  

Dump ship's entire track history